createdAt,value
2022-12-25T00:00:03.431Z,1013.72
2022-12-25T00:05:02.227Z,1013.72
2022-12-25T00:15:01.292Z,1013.86
2022-12-25T00:30:01.218Z,1014.08
2022-12-25T00:45:01.378Z,1014.02
2022-12-25T00:55:02.255Z,1014.03
2022-12-25T01:00:03.958Z,1013.97
2022-12-25T01:10:01.225Z,1013.94
2022-12-25T01:15:01.261Z,1013.94
2022-12-25T01:30:02.115Z,1013.84
2022-12-25T01:45:01.238Z,1014.07
2022-12-25T02:00:03.423Z,1014.11
2022-12-25T02:15:06.533Z,1014.21
2022-12-25T02:30:01.185Z,1014.44
2022-12-25T02:45:11.211Z,1014.60
2022-12-25T03:00:03.122Z,1014.54
2022-12-25T03:10:01.447Z,1014.72
2022-12-25T03:15:01.242Z,1014.72
2022-12-25T03:30:01.362Z,1014.42
2022-12-25T03:45:02.243Z,1014.06
2022-12-25T04:00:03.315Z,1014.21
2022-12-25T04:15:01.191Z,1014.12
2022-12-25T04:20:01.462Z,1014.03
2022-12-25T04:30:01.541Z,1013.89
2022-12-25T04:45:01.320Z,1013.78
2022-12-25T04:55:01.352Z,1013.71
2022-12-25T05:00:03.365Z,1013.78
2022-12-25T05:05:01.317Z,1013.78
2022-12-25T05:15:01.546Z,1013.80
2022-12-25T05:30:01.312Z,1013.38
2022-12-25T05:45:01.307Z,1013.24
2022-12-25T05:55:01.349Z,1013.45
2022-12-25T06:00:02.798Z,1013.45
2022-12-25T06:15:02.454Z,1013.29
2022-12-25T06:20:01.514Z,1013.31
2022-12-25T06:30:01.350Z,1013.27
2022-12-25T06:40:06.254Z,1013.39
2022-12-25T06:45:02.403Z,1013.39
2022-12-25T06:50:06.256Z,1013.30
2022-12-25T07:00:03.072Z,1013.39
2022-12-25T07:15:01.551Z,1013.55
2022-12-25T07:20:01.320Z,1013.40
2022-12-25T07:30:01.463Z,1013.55
2022-12-25T07:45:01.276Z,1013.52
2022-12-25T08:00:03.277Z,1013.53
2022-12-25T08:15:11.368Z,1013.46
2022-12-25T08:30:01.315Z,1013.42
2022-12-25T08:45:01.391Z,1013.44
2022-12-25T08:50:01.627Z,1013.45
2022-12-25T09:00:03.641Z,1013.32
2022-12-25T09:10:01.722Z,1013.42
2022-12-25T09:15:01.902Z,1013.42
2022-12-25T09:30:02.375Z,1013.39
2022-12-25T09:45:01.633Z,1013.53
2022-12-25T10:00:03.626Z,1013.43
2022-12-25T10:15:01.325Z,1013.48
2022-12-25T10:30:01.484Z,1013.20
2022-12-25T10:35:01.798Z,1013.20
2022-12-25T10:45:01.640Z,1012.92
2022-12-25T10:50:01.664Z,1012.77
2022-12-25T11:00:03.752Z,1012.82
2022-12-25T11:15:02.429Z,1012.73
2022-12-25T11:20:01.459Z,1012.70
2022-12-25T11:30:01.660Z,1012.83
2022-12-25T11:45:01.764Z,1012.63
2022-12-25T11:50:01.613Z,1012.45
2022-12-25T12:00:03.108Z,1012.56
2022-12-25T12:05:01.429Z,1012.56
2022-12-25T12:15:01.413Z,1012.53
2022-12-25T12:25:11.182Z,1012.42
2022-12-25T12:30:01.325Z,1012.47
2022-12-25T12:45:01.389Z,1012.33
2022-12-25T13:00:11.353Z,1012.24
2022-12-25T13:15:01.661Z,1012.06
2022-12-25T13:20:01.380Z,1011.97
2022-12-25T13:30:01.631Z,1011.85
2022-12-25T13:45:02.680Z,1011.78
2022-12-25T14:00:16.410Z,1011.71
2022-12-25T14:30:01.884Z,1011.54
2022-12-25T14:45:07.852Z,1011.58
2022-12-25T14:50:01.721Z,1011.41
2022-12-25T15:00:03.941Z,1011.14
2022-12-25T15:15:01.765Z,1011.09
2022-12-25T15:30:11.279Z,1010.94
2022-12-25T15:40:02.942Z,1010.86
2022-12-25T15:45:01.275Z,1010.86
2022-12-25T16:00:02.881Z,1010.89
2022-12-25T16:15:02.304Z,1010.76
2022-12-25T16:20:01.389Z,1010.68
2022-12-25T16:30:01.717Z,1010.68
2022-12-25T16:45:01.713Z,1010.55
2022-12-25T17:00:03.720Z,1010.47
2022-12-25T17:05:01.762Z,1010.47
2022-12-25T17:10:01.273Z,1010.29
2022-12-25T17:15:01.414Z,1010.29
2022-12-25T17:30:09.109Z,1010.16
2022-12-25T17:45:01.292Z,1010.06
2022-12-25T18:00:03.798Z,1009.95
2022-12-25T18:15:06.468Z,1009.85
2022-12-25T18:30:01.414Z,1009.73
2022-12-25T18:45:01.539Z,1009.53
2022-12-25T19:00:04.020Z,1009.27
2022-12-25T19:15:01.703Z,1009.15
2022-12-25T19:30:01.697Z,1008.85
2022-12-25T19:45:01.768Z,1008.83
2022-12-25T20:00:03.106Z,1008.56
2022-12-25T20:15:01.433Z,1008.53
2022-12-25T20:30:06.411Z,1008.47
2022-12-25T20:40:02.564Z,1008.34
2022-12-25T20:45:06.462Z,1008.34
2022-12-25T21:00:03.486Z,1008.36
2022-12-25T21:15:15.790Z,1008.29
2022-12-25T21:30:16.067Z,1008.03
2022-12-25T21:45:01.772Z,1008.09
2022-12-25T21:50:01.402Z,1007.86
2022-12-25T22:00:03.404Z,1007.93
2022-12-25T22:15:01.712Z,1007.75
2022-12-25T22:30:01.747Z,1007.67
2022-12-25T22:35:01.500Z,1007.67
2022-12-25T22:45:01.769Z,1007.66
2022-12-25T23:00:03.083Z,1007.44
2022-12-25T23:15:16.590Z,1007.36
2022-12-25T23:30:02.485Z,1007.53
2022-12-25T23:45:01.573Z,1007.50
